sensor_id;sensor_type;location;lat;lon;timestamp;P1;durP1;ratioP1;P2;durP2;ratioP2
43552;SDS011;29153;42.696;23.218;2023-07-20T00:00:24;5.83;;;2.12;;
43552;SDS011;29153;42.696;23.218;2023-07-20T00:02:52;10.75;;;2.00;;
43552;SDS011;29153;42.696;23.218;2023-07-20T00:05:21;9.25;;;2.10;;
43552;SDS011;29153;42.696;23.218;2023-07-20T00:07:50;5.45;;;1.92;;
43552;SDS011;29153;42.696;23.218;2023-07-20T00:10:18;8.83;;;1.90;;
43552;SDS011;29153;42.696;23.218;2023-07-20T00:12:45;8.63;;;2.20;;
43552;SDS011;29153;42.696;23.218;2023-07-20T00:15:14;6.08;;;2.80;;
43552;SDS011;29153;42.696;23.218;2023-07-20T00:17:42;8.00;;;2.45;;
43552;SDS011;29153;42.696;23.218;2023-07-20T00:20:10;10.93;;;2.60;;
43552;SDS011;29153;42.696;23.218;2023-07-20T00:25:05;8.00;;;2.22;;
43552;SDS011;29153;42.696;23.218;2023-07-20T00:27:33;6.72;;;2.87;;
43552;SDS011;29153;42.696;23.218;2023-07-20T00:30:00;5.50;;;2.17;;
43552;SDS011;29153;42.696;23.218;2023-07-20T00:32:28;6.95;;;2.77;;
43552;SDS011;29153;42.696;23.218;2023-07-20T00:34:56;7.37;;;2.20;;
43552;SDS011;29153;42.696;23.218;2023-07-20T00:37:23;5.60;;;2.30;;
43552;SDS011;29153;42.696;23.218;2023-07-20T00:39:51;7.17;;;2.62;;
43552;SDS011;29153;42.696;23.218;2023-07-20T00:42:19;5.75;;;2.33;;
43552;SDS011;29153;42.696;23.218;2023-07-20T00:44:47;18.45;;;3.00;;
43552;SDS011;29153;42.696;23.218;2023-07-20T00:47:15;7.90;;;2.70;;
43552;SDS011;29153;42.696;23.218;2023-07-20T00:49:42;10.45;;;3.25;;
43552;SDS011;29153;42.696;23.218;2023-07-20T00:52:11;8.53;;;2.15;;
43552;SDS011;29153;42.696;23.218;2023-07-20T00:54:41;7.83;;;3.60;;
43552;SDS011;29153;42.696;23.218;2023-07-20T00:57:09;6.33;;;2.50;;
43552;SDS011;29153;42.696;23.218;2023-07-20T00:59:38;6.67;;;3.27;;
43552;SDS011;29153;42.696;23.218;2023-07-20T01:02:07;7.60;;;2.40;;
43552;SDS011;29153;42.696;23.218;2023-07-20T01:25:30;9.65;;;3.50;;
43552;SDS011;29153;42.696;23.218;2023-07-20T01:31:32;8.73;;;2.75;;
43552;SDS011;29153;42.696;23.218;2023-07-20T01:35:51;10.88;;;3.85;;
43552;SDS011;29153;42.696;23.218;2023-07-20T01:38:17;10.03;;;3.27;;
43552;SDS011;29153;42.696;23.218;2023-07-20T01:40:46;6.12;;;2.50;;
43552;SDS011;29153;42.696;23.218;2023-07-20T01:43:14;9.28;;;3.17;;
43552;SDS011;29153;42.696;23.218;2023-07-20T01:45:43;6.20;;;3.60;;
43552;SDS011;29153;42.696;23.218;2023-07-20T01:50:38;9.05;;;3.05;;
43552;SDS011;29153;42.696;23.218;2023-07-20T01:53:05;7.47;;;2.65;;
43552;SDS011;29153;42.696;23.218;2023-07-20T01:55:33;7.12;;;3.17;;
43552;SDS011;29153;42.696;23.218;2023-07-20T01:58:00;8.68;;;3.47;;
43552;SDS011;29153;42.696;23.218;2023-07-20T02:00:29;9.23;;;3.47;;
43552;SDS011;29153;42.696;23.218;2023-07-20T02:02:56;7.92;;;3.30;;
43552;SDS011;29153;42.696;23.218;2023-07-20T02:05:24;8.45;;;2.75;;
43552;SDS011;29153;42.696;23.218;2023-07-20T02:07:52;10.60;;;3.55;;
43552;SDS011;29153;42.696;23.218;2023-07-20T02:10:19;9.33;;;3.02;;
43552;SDS011;29153;42.696;23.218;2023-07-20T02:12:47;9.23;;;3.30;;
43552;SDS011;29153;42.696;23.218;2023-07-20T02:15:15;8.35;;;3.42;;
43552;SDS011;29153;42.696;23.218;2023-07-20T02:17:42;7.22;;;3.42;;
43552;SDS011;29153;42.696;23.218;2023-07-20T02:20:10;8.13;;;3.40;;
43552;SDS011;29153;42.696;23.218;2023-07-20T02:22:38;8.53;;;3.65;;
43552;SDS011;29153;42.696;23.218;2023-07-20T02:27:33;9.80;;;3.42;;
43552;SDS011;29153;42.696;23.218;2023-07-20T02:30:01;7.28;;;2.95;;
43552;SDS011;29153;42.696;23.218;2023-07-20T02:32:29;7.45;;;3.10;;
43552;SDS011;29153;42.696;23.218;2023-07-20T02:34:58;8.83;;;4.20;;
43552;SDS011;29153;42.696;23.218;2023-07-20T02:37:25;9.85;;;3.05;;
43552;SDS011;29153;42.696;23.218;2023-07-20T02:39:53;10.08;;;3.65;;
43552;SDS011;29153;42.696;23.218;2023-07-20T02:42:21;6.95;;;3.12;;
43552;SDS011;29153;42.696;23.218;2023-07-20T02:44:50;8.38;;;3.12;;
43552;SDS011;29153;42.696;23.218;2023-07-20T02:47:18;7.05;;;3.58;;
43552;SDS011;29153;42.696;23.218;2023-07-20T02:49:46;9.03;;;3.33;;
43552;SDS011;29153;42.696;23.218;2023-07-20T02:52:13;10.23;;;3.42;;
43552;SDS011;29153;42.696;23.218;2023-07-20T02:54:41;9.95;;;3.45;;
43552;SDS011;29153;42.696;23.218;2023-07-20T02:57:09;10.25;;;3.35;;
43552;SDS011;29153;42.696;23.218;2023-07-20T02:59:36;7.08;;;3.40;;
43552;SDS011;29153;42.696;23.218;2023-07-20T03:02:04;7.97;;;3.90;;
43552;SDS011;29153;42.696;23.218;2023-07-20T03:04:33;9.75;;;3.20;;
43552;SDS011;29153;42.696;23.218;2023-07-20T03:07:03;7.90;;;2.70;;
43552;SDS011;29153;42.696;23.218;2023-07-20T03:09:32;9.05;;;4.42;;
43552;SDS011;29153;42.696;23.218;2023-07-20T03:12:00;10.90;;;3.62;;
43552;SDS011;29153;42.696;23.218;2023-07-20T03:14:29;9.15;;;3.37;;
43552;SDS011;29153;42.696;23.218;2023-07-20T03:16:57;7.30;;;3.25;;
43552;SDS011;29153;42.696;23.218;2023-07-20T04:00:01;8.50;;;3.15;;
43552;SDS011;29153;42.696;23.218;2023-07-20T04:02:31;10.00;;;3.12;;
43552;SDS011;29153;42.696;23.218;2023-07-20T04:04:58;9.73;;;2.90;;
43552;SDS011;29153;42.696;23.218;2023-07-20T04:07:26;6.58;;;2.67;;
43552;SDS011;29153;42.696;23.218;2023-07-20T04:09:53;9.28;;;2.87;;
43552;SDS011;29153;42.696;23.218;2023-07-20T04:12:22;8.15;;;2.67;;
43552;SDS011;29153;42.696;23.218;2023-07-20T04:14:49;12.15;;;3.27;;
43552;SDS011;29153;42.696;23.218;2023-07-20T04:17:17;11.88;;;3.50;;
43552;SDS011;29153;42.696;23.218;2023-07-20T04:19:45;6.75;;;2.55;;
43552;SDS011;29153;42.696;23.218;2023-07-20T04:22:13;10.38;;;2.83;;
43552;SDS011;29153;42.696;23.218;2023-07-20T04:24:43;7.45;;;2.58;;
43552;SDS011;29153;42.696;23.218;2023-07-20T04:27:11;9.60;;;2.90;;
43552;SDS011;29153;42.696;23.218;2023-07-20T04:29:38;10.95;;;3.50;;
43552;SDS011;29153;42.696;23.218;2023-07-20T04:32:06;10.32;;;3.15;;
43552;SDS011;29153;42.696;23.218;2023-07-20T04:37:03;11.43;;;4.85;;
43552;SDS011;29153;42.696;23.218;2023-07-20T04:39:31;13.38;;;7.22;;
43552;SDS011;29153;42.696;23.218;2023-07-20T04:41:59;13.15;;;5.28;;
43552;SDS011;29153;42.696;23.218;2023-07-20T04:44:26;10.43;;;4.85;;
43552;SDS011;29153;42.696;23.218;2023-07-20T04:46:54;12.60;;;6.05;;
43552;SDS011;29153;42.696;23.218;2023-07-20T04:49:22;15.25;;;5.72;;
43552;SDS011;29153;42.696;23.218;2023-07-20T04:51:49;12.68;;;5.47;;
43552;SDS011;29153;42.696;23.218;2023-07-20T04:54:17;12.80;;;5.60;;
43552;SDS011;29153;42.696;23.218;2023-07-20T04:56:45;10.30;;;5.15;;
43552;SDS011;29153;42.696;23.218;2023-07-20T04:59:13;17.05;;;5.22;;
43552;SDS011;29153;42.696;23.218;2023-07-20T05:01:40;16.17;;;5.25;;
43552;SDS011;29153;42.696;23.218;2023-07-20T05:04:08;12.58;;;5.20;;
43552;SDS011;29153;42.696;23.218;2023-07-20T05:06:35;17.30;;;5.78;;
43552;SDS011;29153;42.696;23.218;2023-07-20T05:09:04;14.05;;;5.55;;
43552;SDS011;29153;42.696;23.218;2023-07-20T05:11:33;16.02;;;5.70;;
43552;SDS011;29153;42.696;23.218;2023-07-20T05:14:00;9.35;;;4.97;;
43552;SDS011;29153;42.696;23.218;2023-07-20T05:16:28;13.68;;;4.45;;
43552;SDS011;29153;42.696;23.218;2023-07-20T05:18:56;14.50;;;6.47;;
43552;SDS011;29153;42.696;23.218;2023-07-20T05:21:23;12.43;;;5.22;;
43552;SDS011;29153;42.696;23.218;2023-07-20T05:23:51;14.53;;;5.17;;
43552;SDS011;29153;42.696;23.218;2023-07-20T05:26:19;9.78;;;4.30;;
43552;SDS011;29153;42.696;23.218;2023-07-20T05:28:46;16.07;;;4.78;;
43552;SDS011;29153;42.696;23.218;2023-07-20T05:31:14;13.18;;;5.20;;
43552;SDS011;29153;42.696;23.218;2023-07-20T05:33:41;14.80;;;4.53;;
43552;SDS011;29153;42.696;23.218;2023-07-20T05:36:09;12.15;;;4.78;;
43552;SDS011;29153;42.696;23.218;2023-07-20T05:38:37;9.83;;;4.58;;
43552;SDS011;29153;42.696;23.218;2023-07-20T05:41:04;11.73;;;3.65;;
43552;SDS011;29153;42.696;23.218;2023-07-20T05:43:33;11.90;;;4.50;;
43552;SDS011;29153;42.696;23.218;2023-07-20T05:46:01;13.58;;;4.10;;
43552;SDS011;29153;42.696;23.218;2023-07-20T05:48:30;9.28;;;4.10;;
43552;SDS011;29153;42.696;23.218;2023-07-20T05:50:58;11.15;;;4.35;;
43552;SDS011;29153;42.696;23.218;2023-07-20T05:53:25;12.82;;;4.08;;
43552;SDS011;29153;42.696;23.218;2023-07-20T05:55:53;13.68;;;4.25;;
43552;SDS011;29153;42.696;23.218;2023-07-20T05:58:21;10.20;;;3.98;;
43552;SDS011;29153;42.696;23.218;2023-07-20T06:00:49;11.43;;;3.87;;
43552;SDS011;29153;42.696;23.218;2023-07-20T06:03:17;9.45;;;3.95;;
43552;SDS011;29153;42.696;23.218;2023-07-20T06:05:46;12.73;;;4.45;;
43552;SDS011;29153;42.696;23.218;2023-07-20T06:08:14;11.33;;;4.17;;
43552;SDS011;29153;42.696;23.218;2023-07-20T06:10:41;15.00;;;4.20;;
43552;SDS011;29153;42.696;23.218;2023-07-20T06:13:09;16.00;;;3.95;;
43552;SDS011;29153;42.696;23.218;2023-07-20T06:15:36;10.78;;;4.10;;
43552;SDS011;29153;42.696;23.218;2023-07-20T06:20:31;12.13;;;4.03;;
43552;SDS011;29153;42.696;23.218;2023-07-20T06:22:59;10.00;;;3.77;;
43552;SDS011;29153;42.696;23.218;2023-07-20T06:25:26;13.28;;;4.10;;
43552;SDS011;29153;42.696;23.218;2023-07-20T06:27:54;12.73;;;4.10;;
43552;SDS011;29153;42.696;23.218;2023-07-20T06:30:22;13.13;;;4.20;;
43552;SDS011;29153;42.696;23.218;2023-07-20T06:32:52;9.80;;;3.42;;
43552;SDS011;29153;42.696;23.218;2023-07-20T06:35:20;8.88;;;3.65;;
43552;SDS011;29153;42.696;23.218;2023-07-20T06:37:47;9.73;;;3.27;;
43552;SDS011;29153;42.696;23.218;2023-07-20T06:40:15;11.53;;;3.42;;
43552;SDS011;29153;42.696;23.218;2023-07-20T06:42:43;8.73;;;3.27;;
43552;SDS011;29153;42.696;23.218;2023-07-20T06:45:11;14.05;;;3.60;;
43552;SDS011;29153;42.696;23.218;2023-07-20T06:47:38;7.85;;;2.87;;
43552;SDS011;29153;42.696;23.218;2023-07-20T06:50:07;12.58;;;3.60;;
43552;SDS011;29153;42.696;23.218;2023-07-20T06:52:35;10.48;;;3.30;;
43552;SDS011;29153;42.696;23.218;2023-07-20T06:55:03;8.13;;;3.50;;
43552;SDS011;29153;42.696;23.218;2023-07-20T06:57:31;12.98;;;3.45;;
43552;SDS011;29153;42.696;23.218;2023-07-20T07:00:00;9.38;;;3.55;;
43552;SDS011;29153;42.696;23.218;2023-07-20T07:02:29;12.28;;;3.50;;
43552;SDS011;29153;42.696;23.218;2023-07-20T07:04:57;10.53;;;3.20;;
43552;SDS011;29153;42.696;23.218;2023-07-20T07:07:24;9.40;;;3.17;;
43552;SDS011;29153;42.696;23.218;2023-07-20T07:09:52;11.57;;;3.90;;
43552;SDS011;29153;42.696;23.218;2023-07-20T07:12:19;8.25;;;2.77;;
43552;SDS011;29153;42.696;23.218;2023-07-20T07:14:47;11.88;;;3.37;;
43552;SDS011;29153;42.696;23.218;2023-07-20T07:19:41;12.30;;;3.17;;
43552;SDS011;29153;42.696;23.218;2023-07-20T07:22:10;7.83;;;2.67;;
43552;SDS011;29153;42.696;23.218;2023-07-20T07:24:37;9.45;;;2.80;;
43552;SDS011;29153;42.696;23.218;2023-07-20T07:27:08;12.13;;;3.20;;
43552;SDS011;29153;42.696;23.218;2023-07-20T07:29:35;9.03;;;2.87;;
43552;SDS011;29153;42.696;23.218;2023-07-20T07:32:03;7.33;;;2.85;;
43552;SDS011;29153;42.696;23.218;2023-07-20T07:50:29;9.58;;;3.22;;
43552;SDS011;29153;42.696;23.218;2023-07-20T07:57:52;10.80;;;3.10;;
43552;SDS011;29153;42.696;23.218;2023-07-20T08:00:20;9.28;;;2.62;;
43552;SDS011;29153;42.696;23.218;2023-07-20T08:02:49;8.45;;;3.55;;
43552;SDS011;29153;42.696;23.218;2023-07-20T08:05:17;9.35;;;3.22;;
43552;SDS011;29153;42.696;23.218;2023-07-20T08:10:12;10.45;;;2.80;;
43552;SDS011;29153;42.696;23.218;2023-07-20T08:12:39;7.10;;;2.15;;
43552;SDS011;29153;42.696;23.218;2023-07-20T08:17:34;7.25;;;2.10;;
43552;SDS011;29153;42.696;23.218;2023-07-20T08:22:29;8.25;;;2.02;;
43552;SDS011;29153;42.696;23.218;2023-07-20T08:27:24;6.42;;;2.02;;
43552;SDS011;29153;42.696;23.218;2023-07-20T08:29:52;10.03;;;1.98;;
43552;SDS011;29153;42.696;23.218;2023-07-20T08:32:19;10.40;;;1.40;;
43552;SDS011;29153;42.696;23.218;2023-07-20T08:34:47;15.30;;;1.90;;
43552;SDS011;29153;42.696;23.218;2023-07-20T08:37:15;9.48;;;1.70;;
43552;SDS011;29153;42.696;23.218;2023-07-20T08:39:42;7.65;;;1.72;;
43552;SDS011;29153;42.696;23.218;2023-07-20T08:42:10;6.97;;;1.95;;
43552;SDS011;29153;42.696;23.218;2023-07-20T08:44:38;10.40;;;1.92;;
43552;SDS011;29153;42.696;23.218;2023-07-20T08:47:08;7.95;;;2.10;;
43552;SDS011;29153;42.696;23.218;2023-07-20T08:49:37;7.33;;;1.30;;
43552;SDS011;29153;42.696;23.218;2023-07-20T08:52:06;7.45;;;1.67;;
43552;SDS011;29153;42.696;23.218;2023-07-20T08:54:34;11.28;;;1.90;;
43552;SDS011;29153;42.696;23.218;2023-07-20T08:57:02;5.65;;;1.70;;
43552;SDS011;29153;42.696;23.218;2023-07-20T08:59:31;9.45;;;1.92;;
43552;SDS011;29153;42.696;23.218;2023-07-20T09:02:01;9.28;;;1.90;;
43552;SDS011;29153;42.696;23.218;2023-07-20T09:04:31;10.32;;;1.60;;
43552;SDS011;29153;42.696;23.218;2023-07-20T09:06:58;9.25;;;1.80;;
43552;SDS011;29153;42.696;23.218;2023-07-20T09:09:27;9.48;;;1.90;;
43552;SDS011;29153;42.696;23.218;2023-07-20T09:11:54;5.97;;;1.92;;
43552;SDS011;29153;42.696;23.218;2023-07-20T09:14:22;4.40;;;1.65;;
43552;SDS011;29153;42.696;23.218;2023-07-20T09:16:54;9.38;;;1.90;;
43552;SDS011;29153;42.696;23.218;2023-07-20T09:19:22;5.87;;;1.77;;
43552;SDS011;29153;42.696;23.218;2023-07-20T09:21:50;9.55;;;1.85;;
43552;SDS011;29153;42.696;23.218;2023-07-20T09:24:19;7.40;;;2.12;;
43552;SDS011;29153;42.696;23.218;2023-07-20T09:26:47;7.25;;;1.80;;
43552;SDS011;29153;42.696;23.218;2023-07-20T09:29:19;8.88;;;1.32;;
43552;SDS011;29153;42.696;23.218;2023-07-20T09:32:05;10.32;;;1.95;;
43552;SDS011;29153;42.696;23.218;2023-07-20T09:34:34;10.00;;;2.02;;
43552;SDS011;29153;42.696;23.218;2023-07-20T09:39:29;11.08;;;1.90;;
43552;SDS011;29153;42.696;23.218;2023-07-20T09:42:00;10.23;;;1.90;;
43552;SDS011;29153;42.696;23.218;2023-07-20T09:44:27;7.70;;;1.98;;
43552;SDS011;29153;42.696;23.218;2023-07-20T09:49:22;5.10;;;1.40;;
43552;SDS011;29153;42.696;23.218;2023-07-20T09:51:50;7.85;;;1.42;;
43552;SDS011;29153;42.696;23.218;2023-07-20T09:54:19;4.30;;;1.35;;
43552;SDS011;29153;42.696;23.218;2023-07-20T09:56:48;6.42;;;1.82;;
43552;SDS011;29153;42.696;23.218;2023-07-20T09:59:18;6.67;;;1.77;;
43552;SDS011;29153;42.696;23.218;2023-07-20T10:01:45;5.12;;;1.60;;
43552;SDS011;29153;42.696;23.218;2023-07-20T10:04:14;4.37;;;1.22;;
43552;SDS011;29153;42.696;23.218;2023-07-20T10:06:44;8.35;;;1.60;;
43552;SDS011;29153;42.696;23.218;2023-07-20T10:09:14;5.42;;;1.60;;
43552;SDS011;29153;42.696;23.218;2023-07-20T10:11:45;6.75;;;1.45;;
43552;SDS011;29153;42.696;23.218;2023-07-20T10:14:14;5.62;;;1.52;;
43552;SDS011;29153;42.696;23.218;2023-07-20T10:16:46;5.40;;;1.40;;
43552;SDS011;29153;42.696;23.218;2023-07-20T10:19:22;6.53;;;1.47;;
43552;SDS011;29153;42.696;23.218;2023-07-20T10:21:52;6.92;;;1.57;;
43552;SDS011;29153;42.696;23.218;2023-07-20T10:24:33;3.22;;;1.20;;
43552;SDS011;29153;42.696;23.218;2023-07-20T10:27:02;8.15;;;1.52;;
43552;SDS011;29153;42.696;23.218;2023-07-20T10:29:30;6.17;;;1.50;;
43552;SDS011;29153;42.696;23.218;2023-07-20T10:31:59;5.78;;;1.55;;
43552;SDS011;29153;42.696;23.218;2023-07-20T10:34:27;8.73;;;1.40;;
43552;SDS011;29153;42.696;23.218;2023-07-20T10:36:55;6.00;;;1.67;;
43552;SDS011;29153;42.696;23.218;2023-07-20T10:42:06;8.13;;;1.40;;
43552;SDS011;29153;42.696;23.218;2023-07-20T10:44:30;5.95;;;1.67;;
43552;SDS011;29153;42.696;23.218;2023-07-20T10:47:01;5.10;;;1.35;;
43552;SDS011;29153;42.696;23.218;2023-07-20T10:49:38;4.37;;;1.40;;
43552;SDS011;29153;42.696;23.218;2023-07-20T10:52:04;5.10;;;1.60;;
43552;SDS011;29153;42.696;23.218;2023-07-20T10:54:34;6.33;;;1.45;;
43552;SDS011;29153;42.696;23.218;2023-07-20T10:59:48;6.33;;;1.75;;
43552;SDS011;29153;42.696;23.218;2023-07-20T11:02:19;6.58;;;1.30;;
43552;SDS011;29153;42.696;23.218;2023-07-20T11:04:47;6.37;;;2.15;;
43552;SDS011;29153;42.696;23.218;2023-07-20T11:07:15;7.65;;;1.67;;
43552;SDS011;29153;42.696;23.218;2023-07-20T11:09:44;7.10;;;1.92;;
43552;SDS011;29153;42.696;23.218;2023-07-20T11:12:13;5.90;;;1.98;;
43552;SDS011;29153;42.696;23.218;2023-07-20T11:14:53;5.87;;;1.82;;
43552;SDS011;29153;42.696;23.218;2023-07-20T11:17:29;7.10;;;1.80;;
43552;SDS011;29153;42.696;23.218;2023-07-20T11:19:58;6.30;;;2.15;;
43552;SDS011;29153;42.696;23.218;2023-07-20T11:22:28;5.65;;;1.90;;
43552;SDS011;29153;42.696;23.218;2023-07-20T11:25:00;9.30;;;1.98;;
43552;SDS011;29153;42.696;23.218;2023-07-20T11:27:29;6.60;;;1.72;;
43552;SDS011;29153;42.696;23.218;2023-07-20T11:32:23;6.37;;;2.12;;
43552;SDS011;29153;42.696;23.218;2023-07-20T11:34:51;6.75;;;2.15;;
43552;SDS011;29153;42.696;23.218;2023-07-20T11:37:18;9.43;;;2.22;;
43552;SDS011;29153;42.696;23.218;2023-07-20T11:39:46;8.70;;;2.30;;
43552;SDS011;29153;42.696;23.218;2023-07-20T11:42:14;7.80;;;2.00;;
43552;SDS011;29153;42.696;23.218;2023-07-20T11:44:41;8.60;;;2.50;;
43552;SDS011;29153;42.696;23.218;2023-07-20T11:47:09;7.95;;;3.08;;
43552;SDS011;29153;42.696;23.218;2023-07-20T11:49:40;5.37;;;2.52;;
43552;SDS011;29153;42.696;23.218;2023-07-20T11:52:13;8.43;;;2.27;;
43552;SDS011;29153;42.696;23.218;2023-07-20T11:54:42;6.53;;;3.10;;
43552;SDS011;29153;42.696;23.218;2023-07-20T11:57:16;12.23;;;2.25;;
43552;SDS011;29153;42.696;23.218;2023-07-20T11:59:56;8.15;;;2.47;;
43552;SDS011;29153;42.696;23.218;2023-07-20T12:02:27;7.65;;;2.55;;
43552;SDS011;29153;42.696;23.218;2023-07-20T12:04:55;9.33;;;2.30;;
43552;SDS011;29153;42.696;23.218;2023-07-20T12:07:25;6.70;;;2.58;;
43552;SDS011;29153;42.696;23.218;2023-07-20T12:10:11;8.28;;;2.35;;
43552;SDS011;29153;42.696;23.218;2023-07-20T12:12:39;7.78;;;2.77;;
43552;SDS011;29153;42.696;23.218;2023-07-20T12:15:19;9.05;;;2.72;;
43552;SDS011;29153;42.696;23.218;2023-07-20T12:17:52;9.95;;;2.65;;
43552;SDS011;29153;42.696;23.218;2023-07-20T12:20:27;11.75;;;2.47;;
43552;SDS011;29153;42.696;23.218;2023-07-20T12:22:59;7.30;;;2.00;;
43552;SDS011;29153;42.696;23.218;2023-07-20T12:25:34;8.70;;;2.10;;
43552;SDS011;29153;42.696;23.218;2023-07-20T12:28:15;5.87;;;1.72;;
43552;SDS011;29153;42.696;23.218;2023-07-20T12:30:41;12.73;;;2.20;;
43552;SDS011;29153;42.696;23.218;2023-07-20T12:33:10;6.97;;;1.92;;
43552;SDS011;29153;42.696;23.218;2023-07-20T12:35:41;10.65;;;2.27;;
43552;SDS011;29153;42.696;23.218;2023-07-20T12:38:12;9.25;;;1.95;;
43552;SDS011;29153;42.696;23.218;2023-07-20T12:40:39;9.25;;;2.15;;
43552;SDS011;29153;42.696;23.218;2023-07-20T12:43:07;8.13;;;2.10;;
43552;SDS011;29153;42.696;23.218;2023-07-20T12:45:35;5.40;;;1.80;;
43552;SDS011;29153;42.696;23.218;2023-07-20T12:48:06;7.25;;;1.57;;
43552;SDS011;29153;42.696;23.218;2023-07-20T12:50:35;4.35;;;1.30;;
43552;SDS011;29153;42.696;23.218;2023-07-20T12:53:03;7.03;;;1.92;;
43552;SDS011;29153;42.696;23.218;2023-07-20T12:55:33;6.40;;;1.77;;
43552;SDS011;29153;42.696;23.218;2023-07-20T12:58:01;8.28;;;2.12;;
43552;SDS011;29153;42.696;23.218;2023-07-20T13:00:28;6.85;;;2.27;;
43552;SDS011;29153;42.696;23.218;2023-07-20T13:02:58;7.50;;;2.20;;
43552;SDS011;29153;42.696;23.218;2023-07-20T13:05:25;6.37;;;1.82;;
43552;SDS011;29153;42.696;23.218;2023-07-20T13:07:53;4.72;;;1.60;;
43552;SDS011;29153;42.696;23.218;2023-07-20T13:10:20;8.20;;;2.00;;
43552;SDS011;29153;42.696;23.218;2023-07-20T13:12:48;5.55;;;2.15;;
43552;SDS011;29153;42.696;23.218;2023-07-20T13:15:16;8.83;;;2.20;;
43552;SDS011;29153;42.696;23.218;2023-07-20T13:17:44;8.35;;;2.02;;
43552;SDS011;29153;42.696;23.218;2023-07-20T13:20:12;6.85;;;1.90;;
43552;SDS011;29153;42.696;23.218;2023-07-20T13:22:39;8.63;;;2.35;;
43552;SDS011;29153;42.696;23.218;2023-07-20T13:25:09;8.23;;;2.40;;
43552;SDS011;29153;42.696;23.218;2023-07-20T13:27:36;8.58;;;2.45;;
43552;SDS011;29153;42.696;23.218;2023-07-20T13:30:04;7.40;;;2.12;;
43552;SDS011;29153;42.696;23.218;2023-07-20T13:32:34;4.08;;;1.77;;
43552;SDS011;29153;42.696;23.218;2023-07-20T13:35:02;9.45;;;1.70;;
43552;SDS011;29153;42.696;23.218;2023-07-20T13:37:31;9.23;;;1.80;;
43552;SDS011;29153;42.696;23.218;2023-07-20T13:39:59;5.95;;;1.80;;
43552;SDS011;29153;42.696;23.218;2023-07-20T13:42:31;11.88;;;2.12;;
43552;SDS011;29153;42.696;23.218;2023-07-20T13:44:59;7.40;;;1.52;;
43552;SDS011;29153;42.696;23.218;2023-07-20T13:47:26;7.45;;;1.30;;
43552;SDS011;29153;42.696;23.218;2023-07-20T13:49:54;5.78;;;1.60;;
43552;SDS011;29153;42.696;23.218;2023-07-20T13:52:22;7.25;;;1.85;;
43552;SDS011;29153;42.696;23.218;2023-07-20T13:57:16;8.88;;;1.75;;
43552;SDS011;29153;42.696;23.218;2023-07-20T13:59:44;5.37;;;1.70;;
43552;SDS011;29153;42.696;23.218;2023-07-20T14:02:13;5.40;;;1.70;;
43552;SDS011;29153;42.696;23.218;2023-07-20T14:04:41;7.60;;;1.55;;
43552;SDS011;29153;42.696;23.218;2023-07-20T14:07:08;10.32;;;1.42;;
43552;SDS011;29153;42.696;23.218;2023-07-20T14:09:37;6.70;;;1.17;;
43552;SDS011;29153;42.696;23.218;2023-07-20T14:12:04;6.47;;;1.80;;
43552;SDS011;29153;42.696;23.218;2023-07-20T14:14:34;6.92;;;1.35;;
43552;SDS011;29153;42.696;23.218;2023-07-20T14:17:02;6.72;;;2.02;;
43552;SDS011;29153;42.696;23.218;2023-07-20T14:19:29;6.85;;;1.50;;
43552;SDS011;29153;42.696;23.218;2023-07-20T14:24:28;6.37;;;1.40;;
43552;SDS011;29153;42.696;23.218;2023-07-20T14:26:55;7.55;;;1.98;;
43552;SDS011;29153;42.696;23.218;2023-07-20T14:29:23;6.50;;;1.30;;
43552;SDS011;29153;42.696;23.218;2023-07-20T14:34:19;8.38;;;1.50;;
43552;SDS011;29153;42.696;23.218;2023-07-20T14:36:46;6.75;;;2.17;;
43552;SDS011;29153;42.696;23.218;2023-07-20T14:39:15;7.35;;;1.72;;
43552;SDS011;29153;42.696;23.218;2023-07-20T14:41:44;6.60;;;2.10;;
43552;SDS011;29153;42.696;23.218;2023-07-20T14:44:12;4.58;;;1.40;;
43552;SDS011;29153;42.696;23.218;2023-07-20T14:46:39;6.83;;;1.60;;
43552;SDS011;29153;42.696;23.218;2023-07-20T14:49:07;7.22;;;1.70;;
43552;SDS011;29153;42.696;23.218;2023-07-20T14:51:36;5.08;;;1.90;;
43552;SDS011;29153;42.696;23.218;2023-07-20T14:54:05;6.67;;;1.70;;
43552;SDS011;29153;42.696;23.218;2023-07-20T14:56:33;8.35;;;2.35;;
43552;SDS011;29153;42.696;23.218;2023-07-20T14:59:01;8.53;;;2.50;;
43552;SDS011;29153;42.696;23.218;2023-07-20T15:01:29;8.50;;;1.70;;
43552;SDS011;29153;42.696;23.218;2023-07-20T15:06:25;6.83;;;2.17;;
43552;SDS011;29153;42.696;23.218;2023-07-20T15:08:54;7.22;;;1.72;;
43552;SDS011;29153;42.696;23.218;2023-07-20T15:11:23;5.67;;;2.17;;
43552;SDS011;29153;42.696;23.218;2023-07-20T15:18:44;4.10;;;1.52;;
43552;SDS011;29153;42.696;23.218;2023-07-20T15:23:40;6.20;;;1.55;;
43552;SDS011;29153;42.696;23.218;2023-07-20T15:28:34;7.00;;;1.62;;
43552;SDS011;29153;42.696;23.218;2023-07-20T15:31:02;10.35;;;2.10;;
43552;SDS011;29153;42.696;23.218;2023-07-20T15:33:30;7.72;;;1.40;;
43552;SDS011;29153;42.696;23.218;2023-07-20T15:35:58;8.78;;;2.20;;
43552;SDS011;29153;42.696;23.218;2023-07-20T15:43:21;10.75;;;1.90;;
43552;SDS011;29153;42.696;23.218;2023-07-20T15:45:48;6.40;;;1.60;;
43552;SDS011;29153;42.696;23.218;2023-07-20T15:50:43;5.33;;;2.02;;
43552;SDS011;29153;42.696;23.218;2023-07-20T15:53:12;5.62;;;1.60;;
43552;SDS011;29153;42.696;23.218;2023-07-20T15:58:06;6.72;;;1.62;;
43552;SDS011;29153;42.696;23.218;2023-07-20T16:00:35;6.17;;;1.70;;
43552;SDS011;29153;42.696;23.218;2023-07-20T16:03:03;5.70;;;1.60;;
43552;SDS011;29153;42.696;23.218;2023-07-20T16:05:31;6.85;;;1.60;;
43552;SDS011;29153;42.696;23.218;2023-07-20T16:07:59;8.58;;;2.15;;
43552;SDS011;29153;42.696;23.218;2023-07-20T16:10:27;6.40;;;1.17;;
43552;SDS011;29153;42.696;23.218;2023-07-20T16:12:55;5.50;;;1.45;;
43552;SDS011;29153;42.696;23.218;2023-07-20T16:15:22;4.60;;;1.65;;
43552;SDS011;29153;42.696;23.218;2023-07-20T16:17:51;4.60;;;1.52;;
43552;SDS011;29153;42.696;23.218;2023-07-20T16:20:19;7.25;;;1.65;;
43552;SDS011;29153;42.696;23.218;2023-07-20T16:22:46;6.60;;;1.50;;
43552;SDS011;29153;42.696;23.218;2023-07-20T16:35:01;4.92;;;1.55;;
43552;SDS011;29153;42.696;23.218;2023-07-20T16:37:29;5.20;;;1.52;;
43552;SDS011;29153;42.696;23.218;2023-07-20T16:39:57;6.70;;;2.40;;
43552;SDS011;29153;42.696;23.218;2023-07-20T16:44:51;7.50;;;1.70;;
43552;SDS011;29153;42.696;23.218;2023-07-20T16:49:47;5.08;;;1.98;;
43552;SDS011;29153;42.696;23.218;2023-07-20T16:52:15;9.10;;;2.60;;
43552;SDS011;29153;42.696;23.218;2023-07-20T16:54:43;5.70;;;1.67;;
43552;SDS011;29153;42.696;23.218;2023-07-20T16:57:10;5.55;;;2.45;;
43552;SDS011;29153;42.696;23.218;2023-07-20T16:59:38;6.72;;;2.35;;
43552;SDS011;29153;42.696;23.218;2023-07-20T17:02:05;12.05;;;1.85;;
43552;SDS011;29153;42.696;23.218;2023-07-20T17:04:33;4.33;;;1.57;;
43552;SDS011;29153;42.696;23.218;2023-07-20T17:07:01;7.20;;;1.87;;
43552;SDS011;29153;42.696;23.218;2023-07-20T17:11:57;5.60;;;1.67;;
43552;SDS011;29153;42.696;23.218;2023-07-20T17:14:25;3.70;;;1.32;;
43552;SDS011;29153;42.696;23.218;2023-07-20T17:16:52;5.72;;;2.05;;
43552;SDS011;29153;42.696;23.218;2023-07-20T17:19:20;4.22;;;1.32;;
43552;SDS011;29153;42.696;23.218;2023-07-20T17:24:15;5.72;;;1.87;;
43552;SDS011;29153;42.696;23.218;2023-07-20T17:26:44;4.10;;;1.72;;
43552;SDS011;29153;42.696;23.218;2023-07-20T17:31:38;4.45;;;1.50;;
43552;SDS011;29153;42.696;23.218;2023-07-20T17:34:07;4.87;;;1.77;;